This is the latest recevied weather packets stored in our database for station/object MB7UKB-10. If no packets are shown the sender has not sent any weather packets the latest 10 day(s).
| Time | Temp. | Humidity | Pressure | Rain* | Wind** | Luminosity | Snow |
|---|---|---|---|---|---|---|---|
| 1777473743 | 18.89° C | 28% | 1022.4 hPa | 0 mm | - | - | - |
| 1777471943 | 18.89° C | 29% | 1022.3 hPa | 0 mm | - | - | - |
| 1777470143 | 18.89° C | 29% | 1022.4 hPa | 0 mm | - | - | - |
| 1777468343 | 18.33° C | 30% | 1022.7 hPa | 0 mm | - | - | - |
| 1777466543 | 18.33° C | 32% | 1022.9 hPa | 0 mm | - | - | - |
| 1777464744 | 18.33° C | 31% | 1022.9 hPa | 0 mm | - | - | - |
| 1777462944 | 18.33° C | 32% | 1023.2 hPa | 0 mm | - | - | - |
| 1777461144 | 18.33° C | 32% | 1023.2 hPa | 0 mm | - | - | - |
| 1777459344 | 17.78° C | 32% | 1023.4 hPa | 0 mm | - | - | - |
| 1777455744 | 16.67° C | 35% | 1023.5 hPa | 0 mm | - | - | - |
| 1777453944 | 16.11° C | 39% | 1022.9 hPa | 0 mm | - | - | - |
| 1777452144 | 15° C | 45% | 1023.5 hPa | 0 mm | - | - | - |
| 1777450345 | 13.89° C | 53% | 1023.6 hPa | 0 mm | - | - | - |
| 1777448544 | 12.78° C | 58% | 1023.5 hPa | 0 mm | - | - | - |
| 1777446744 | 11.67° C | 62% | 1023.6 hPa | 0 mm | - | - | - |
| 1777443144 | 9.44° C | 72% | 1023.6 hPa | 0 mm | - | - | - |
| 1777441344 | 7.78° C | 79% | 1023.6 hPa | 0 mm | - | - | - |
| 1777439544 | 6.67° C | 81% | 1023.4 hPa | 0 mm | - | - | - |
| 1777437744 | 6.67° C | 81% | 1023.6 hPa | 0 mm | - | - | - |
| 1777435944 | 6.11° C | 82% | 1023.6 hPa | 0 mm | - | - | - |
| 1777434144 | 6.11° C | 81% | 1023.6 hPa | 0 mm | - | - | - |
| 1777432344 | 6.67° C | 79% | 1023.5 hPa | 0 mm | - | - | - |
| 1777430545 | 6.67° C | 78% | 1023.7 hPa | 0 mm | - | - | - |
| 1777428744 | 6.67° C | 77% | 1024 hPa | 0 mm | - | - | - |
| 1777426943 | 6.67° C | 75% | 1024.4 hPa | 0 mm | - | - | - |
* Rain latest hour (hover to see other rain measurements)
** Current wind speed in m/s (hover to see current wind gust speed)